WetterOnline ( https://www.wetteronline.de )

Wetter aktuell Bochum

Aktuelles Wetter: Essen (161m)

6-stündlich | Neueste Meldungen
Ortszeit Temperatur Wetter
Do, 18.04. 14:00 9.4° C wolkig
Do, 18.04. 8:00 3.9° C bewölkt
Do, 18.04. 2:00 4.3° C bedeckt
Mi, 17.04. 20:00 4.5° C leichter Regen
Mi, 17.04. 14:00 7.8° C wolkig
Mi, 17.04. 8:00 3.5° C bewölkt
Mi, 17.04. 2:00 5.0° C wolkenlos
Di, 16.04. 20:00 7.6° C wolkig
Ortszeit Temperatur Wetter
Do, 18.04. 16:00 10.8° C bedeckt
Do, 18.04. 15:50 10.8° C bedeckt
Do, 18.04. 15:40 11.1° C bewölkt
Do, 18.04. 15:30 11.2° C wolkig
Do, 18.04. 15:20 11.2° C wolkig
Do, 18.04. 15:10 9.8° C wolkig
Do, 18.04. 15:00 9.8° C bedeckt
Do, 18.04. 14:30 10.1° C leicht bewölkt
Do, 18.04. 14:00 9.4° C wolkig
Do, 18.04. 13:30 9.2° C wolkig
Do, 18.04. 13:00 9.7° C fast wolkenlos
Ortszeit Relative Feuchte Sichtweite
Do, 18.04. 14:00 51% 45 km
Do, 18.04. 8:00 95% 21 km
Do, 18.04. 2:00 94% 14 km
Mi, 17.04. 20:00 95% 17 km
Mi, 17.04. 14:00 71% 50 km
Mi, 17.04. 8:00 98% 2.9 km
Mi, 17.04. 2:00 91% 22 km
Di, 16.04. 20:00 90% 45 km
Ortszeit Relative Feuchte Sichtweite
Do, 18.04. 16:00 47% 65 km
Do, 18.04. 15:50 47% -
Do, 18.04. 15:40 46% -
Do, 18.04. 15:30 52% 60 km
Do, 18.04. 15:20 52% -
Do, 18.04. 15:10 49% -
Do, 18.04. 15:00 51% 65 km
Do, 18.04. 14:30 51% 55 km
Do, 18.04. 14:00 51% 45 km
Do, 18.04. 13:30 54% 65 km
Do, 18.04. 13:00 48% 45 km
Ortszeit Niederschlagsmenge Niederschlagsart
Do, 18.04. 14:00 0.1 l/m2 in 6 Std. Regen
Do, 18.04. 8:00 3 l/m2 in 12 Std. Regen
Do, 18.04. 2:00 3 l/m2 in 6 Std. Regen
Mi, 17.04. 20:00 3 l/m2 in 12 Std. Regen
Mi, 17.04. 14:00 1 l/m2 in 6 Std. Regen
Mi, 17.04. 8:00 0.1 l/m2 in 12 Std. -
Mi, 17.04. 2:00 0.1 l/m2 in 6 Std. Regen
Di, 16.04. 20:00 13 l/m2 in 12 Std. Regen
Ortszeit Niederschlagsmenge Niederschlagsart
Do, 18.04. 16:00 0.0 l/m2 in 1 Std. -
Do, 18.04. 15:50 keine Meldung -
Do, 18.04. 15:40 keine Meldung -
Do, 18.04. 15:30 0.0 l/m2 in 30 Min -
Do, 18.04. 15:20 keine Meldung -
Do, 18.04. 15:10 keine Meldung -
Do, 18.04. 15:00 0.0 l/m2 in 1 Std. -
Do, 18.04. 14:30 0.0 l/m2 in 30 Min -
Do, 18.04. 14:00 0.0 l/m2 in 1 Std. Regen
Do, 18.04. 13:30 0.0 l/m2 in 30 Min -
Do, 18.04. 13:00 0.0 l/m2 in 1 Std. -
Ortszeit Stärke Spitze Richtung
km/h Bft. km/h Grad Sektor
Do, 18.04. 14:00 14 3 29 310° NW
Do, 18.04. 8:00 9 2 13 330° NW
Do, 18.04. 2:00 7 2 14 320° NW
Mi, 17.04. 20:00 7 2 36 240° SW
Mi, 17.04. 14:00 6 1 24 220° SW
Mi, 17.04. 8:00 7 2 18 240° SW
Mi, 17.04. 2:00 11 2 28 330° NW
Di, 16.04. 20:00 7 2 43 310° NW
Ortszeit Stärke Spitze Richtung
km/h Bft. km/h Grad Sektor
Do, 18.04. 16:00 11 2 25 290° W
Do, 18.04. 15:50 11 2 - 290° W
Do, 18.04. 15:40 13 3 - 270° W
Do, 18.04. 15:30 11 2 26 280° W
Do, 18.04. 15:20 11 2 - 280° W
Do, 18.04. 15:10 9 2 - 290° W
Do, 18.04. 15:00 14 3 25 330° NW
Do, 18.04. 14:30 11 2 22 250° W
Do, 18.04. 14:00 14 3 29 310° NW
Do, 18.04. 13:30 11 2 24 290° W
Do, 18.04. 13:00 11 2 25 330° NW
Ortszeit Untergrenze Bedeckung Gattung
total tief tief mittel hoch
Do, 18.04. 14:00 1320 m 6/8 6/8 - - -
Do, 18.04. 8:00 690 m 7/8 7/8 - - -
Do, 18.04. 2:00 240 m 8/8 8/8 - - -
Mi, 17.04. 20:00 30 m 8/8 8/8 - - -
Mi, 17.04. 14:00 1080 m 8/8 2/8 - - -
Mi, 17.04. 8:00 30 m 7/8 7/8 - - -
Mi, 17.04. 2:00 - 0/8 0/8 - - -
Di, 16.04. 20:00 840 m 8/8 2/8 - - -
Ortszeit Bedeckungsgrad in Achtel und Wolkenuntergrenze
Do, 18.04. 16:00 1(1440m) 8(1500m)
Do, 18.04. 15:50 1(1440m) 8(1500m)
Do, 18.04. 15:40 7
Do, 18.04. 15:30 5(1500m)
Do, 18.04. 15:20 5(1500m)
Do, 18.04. 15:10 5
Do, 18.04. 15:00 7(1470m) 8(1500m)
Do, 18.04. 14:30 3(1500m)
Do, 18.04. 14:00 6(1320m)
Do, 18.04. 13:30 6(1320m)
Do, 18.04. 13:00 1(1260m)
Ortszeit Luftdruck NN (hPa) Tendenz (hPa in 3 Std.)
Do, 18.04. 14:00 1020 + 0,6
Do, 18.04. 8:00 1018 + 2,3
Do, 18.04. 2:00 1014 + 1,2
Mi, 17.04. 20:00 1012 + 0,9
Mi, 17.04. 14:00 1011 - 0,6
Mi, 17.04. 8:00 1012 + 0,6
Mi, 17.04. 2:00 1011 + 1,5
Di, 16.04. 20:00 1006 + 1,9
Ortszeit Luftdruck NN (hPa) Tendenz (hPa in 3 Std.)
Do, 18.04. 16:00 1019 0,0
Do, 18.04. 15:50 1019 keine Meldung
Do, 18.04. 15:40 1019 keine Meldung
Do, 18.04. 15:30 1019 + 0,1
Do, 18.04. 15:20 1019 keine Meldung
Do, 18.04. 15:10 1020 keine Meldung
Do, 18.04. 15:00 1020 + 0,4
Do, 18.04. 14:30 1020 + 0,5
Do, 18.04. 14:00 1020 + 0,6
Do, 18.04. 13:30 1020 + 0,7
Do, 18.04. 13:00 1020 + 0,9
Ortszeit Schneehöhe (cm)
Do, 18.04. 14:00 0
Do, 18.04. 8:00 0
Do, 18.04. 2:00 0
Mi, 17.04. 20:00 0
Mi, 17.04. 14:00 0
Mi, 17.04. 8:00 0
Mi, 17.04. 2:00 0
Di, 16.04. 20:00 0
Ortszeit Schneehöhe (cm)
Do, 18.04. 16:00 0
Do, 18.04. 15:50 0
Do, 18.04. 15:40 -
Do, 18.04. 15:30 0
Do, 18.04. 15:20 0
Do, 18.04. 15:10 -
Do, 18.04. 15:00 0
Do, 18.04. 14:30 0
Do, 18.04. 14:00 0
Do, 18.04. 13:30 0
Do, 18.04. 13:00 0
Link zu dieser Seite / Seite empfehlen

Das Wetter in ...